createdAt,value
2022-09-20T00:01:34.129Z,1.63
2022-09-20T00:04:05.612Z,1.60
2022-09-20T00:06:35.835Z,1.47
2022-09-20T00:09:04.625Z,1.53
2022-09-20T00:11:34.914Z,1.60
2022-09-20T00:14:06.015Z,1.27
2022-09-20T00:16:36.471Z,1.50
2022-09-20T00:19:06.403Z,1.43
2022-09-20T00:21:37.913Z,1.47
2022-09-20T00:24:07.272Z,1.50
2022-09-20T00:26:35.696Z,1.77
2022-09-20T00:29:04.187Z,1.30
2022-09-20T00:31:33.022Z,1.40
2022-09-20T00:34:18.670Z,1.40
2022-09-20T00:36:48.441Z,1.50
2022-09-20T00:39:17.482Z,1.37
2022-09-20T00:41:46.332Z,1.30
2022-09-20T00:44:43.613Z,1.20
2022-09-20T00:47:15.807Z,1.03
2022-09-20T00:49:44.914Z,0.90
2022-09-20T00:52:14.802Z,1.10
2022-09-20T00:54:43.521Z,1.20
2022-09-20T00:57:12.322Z,1.10
2022-09-20T00:59:42.866Z,0.97
2022-09-20T01:02:15.123Z,1.00
2022-09-20T01:04:44.752Z,1.03
2022-09-20T01:07:16.558Z,1.07
2022-09-20T01:09:45.182Z,0.87
2022-09-20T01:12:17.219Z,0.90
2022-09-20T01:14:46.782Z,0.90
2022-09-20T01:17:15.531Z,0.97
2022-09-20T01:19:50.349Z,0.80
2022-09-20T01:22:25.093Z,1.00
2022-09-20T01:24:58.610Z,0.70
2022-09-20T01:27:40.148Z,0.87
2022-09-20T01:30:10.526Z,0.70
2022-09-20T01:32:47.350Z,0.80
2022-09-20T01:35:16.279Z,0.90
2022-09-20T01:37:56.230Z,0.60
2022-09-20T01:40:30.064Z,0.80
2022-09-20T01:43:06.704Z,0.90
2022-09-20T01:45:35.259Z,0.73
2022-09-20T01:48:12.542Z,0.87
2022-09-20T01:50:53.898Z,0.70
2022-09-20T01:53:42.844Z,0.80
2022-09-20T01:56:49.426Z,0.70
2022-09-20T01:59:43.233Z,0.87
2022-09-20T02:02:33.822Z,0.80
2022-09-20T02:05:14.393Z,1.17
2022-09-20T02:08:01.655Z,0.70
2022-09-20T02:10:43.183Z,0.60
2022-09-20T02:13:13.950Z,0.73
2022-09-20T02:16:19.469Z,0.70
2022-09-20T02:19:03.611Z,0.70
2022-09-20T02:21:39.115Z,0.60
2022-09-20T02:24:18.654Z,0.70
2022-09-20T02:26:56.654Z,0.70
2022-09-20T02:29:33.842Z,0.70
2022-09-20T02:32:14.822Z,0.50
2022-09-20T02:34:55.398Z,0.40
2022-09-20T02:37:46.876Z,0.80
2022-09-20T02:40:28.682Z,0.90
2022-09-20T02:43:01.842Z,1.00
2022-09-20T02:45:36.681Z,1.17
2022-09-20T02:48:07.483Z,0.57
2022-09-20T02:50:42.216Z,0.90
2022-09-20T02:53:19.670Z,1.00
2022-09-20T02:55:51.566Z,0.77
2022-09-20T02:58:31.953Z,1.43
2022-09-20T03:01:06.815Z,4.47
2022-09-20T03:03:44.513Z,1.70
2022-09-20T03:06:21.057Z,1.30
2022-09-20T03:08:55.199Z,0.73
2022-09-20T03:11:30.589Z,5.53
2022-09-20T03:14:12.946Z,14.90
2022-09-20T03:16:52.851Z,2.20
2022-09-20T03:19:34.529Z,6.50
2022-09-20T03:22:10.790Z,4.83
2022-09-20T03:24:45.104Z,2.30
2022-09-20T03:27:20.566Z,0.73
2022-09-20T03:29:59.487Z,1.30
2022-09-20T03:32:39.882Z,1.07
2022-09-20T03:35:29.335Z,1.00
2022-09-20T03:38:10.538Z,0.90
2022-09-20T03:41:07.612Z,0.90
2022-09-20T03:43:45.455Z,5.10
2022-09-20T03:46:18.908Z,6.13
2022-09-20T03:49:24.936Z,1.80
2022-09-20T03:52:02.036Z,1.10
2022-09-20T03:55:02.529Z,0.97
2022-09-20T03:57:45.908Z,1.00
2022-09-20T04:00:33.926Z,1.13
2022-09-20T04:03:24.886Z,1.00
2022-09-20T04:06:03.613Z,1.10
2022-09-20T04:08:44.710Z,0.90
2022-09-20T04:11:17.929Z,3.40
2022-09-20T04:13:53.823Z,1.73
2022-09-20T04:16:30.729Z,1.13
2022-09-20T04:19:04.665Z,0.97
2022-09-20T04:21:37.189Z,0.80
2022-09-20T04:24:12.997Z,0.80
2022-09-20T04:26:45.900Z,0.93
2022-09-20T04:29:28.085Z,0.90
2022-09-20T04:32:00.484Z,1.00
2022-09-20T04:34:46.770Z,0.93
2022-09-20T04:37:26.293Z,0.80
2022-09-20T04:40:05.941Z,1.00
2022-09-20T04:43:00.168Z,1.23
2022-09-20T04:45:51.601Z,1.03
2022-09-20T04:48:43.365Z,1.03
2022-09-20T04:52:00.759Z,1.50
2022-09-20T04:54:50.152Z,1.00
2022-09-20T04:57:45.881Z,1.30
2022-09-20T05:00:18.164Z,1.00
2022-09-20T05:03:18.678Z,1.10
2022-09-20T05:06:12.126Z,1.30
2022-09-20T05:09:01.291Z,1.73
2022-09-20T05:12:02.453Z,1.67
2022-09-20T05:15:01.888Z,1.70
2022-09-20T05:17:39.597Z,1.50
2022-09-20T05:20:44.086Z,1.70
2022-09-20T05:23:39.116Z,1.20
2022-09-20T05:26:14.038Z,1.60
2022-09-20T05:28:54.465Z,1.57
2022-09-20T05:31:30.403Z,1.43
2022-09-20T05:34:05.822Z,1.37
2022-09-20T05:36:41.613Z,1.27
2022-09-20T05:39:22.635Z,1.50
2022-09-20T05:41:56.244Z,1.93
2022-09-20T05:44:43.003Z,1.70
2022-09-20T05:47:19.397Z,1.60
2022-09-20T05:49:55.119Z,1.30
2022-09-20T05:52:43.113Z,1.47
2022-09-20T05:55:32.082Z,1.57
2022-09-20T05:58:18.585Z,1.70
2022-09-20T06:00:50.850Z,1.60
2022-09-20T06:03:28.393Z,1.10
2022-09-20T06:06:01.838Z,1.17
2022-09-20T06:08:50.201Z,1.50
2022-09-20T06:11:28.827Z,1.10
2022-09-20T06:14:06.278Z,1.37
2022-09-20T06:16:42.835Z,1.70
2022-09-20T06:19:19.962Z,1.93
2022-09-20T06:21:52.603Z,2.00
2022-09-20T06:24:38.242Z,1.80
2022-09-20T06:27:11.582Z,1.93
2022-09-20T06:29:43.716Z,1.70
2022-09-20T06:32:12.190Z,1.63
2022-09-20T06:34:42.011Z,1.40
2022-09-20T06:37:37.318Z,1.70
2022-09-20T06:40:37.260Z,1.90
2022-09-20T06:43:06.342Z,2.40
2022-09-20T06:45:34.831Z,2.40
2022-09-20T06:48:03.483Z,2.23
2022-09-20T06:50:36.234Z,1.90
2022-09-20T06:53:04.947Z,1.77
2022-09-20T06:55:38.882Z,1.57
2022-09-20T06:58:08.347Z,1.60
2022-09-20T07:00:36.940Z,1.23
2022-09-20T07:03:05.974Z,1.33
2022-09-20T07:05:36.302Z,1.20
2022-09-20T07:08:04.879Z,1.30
2022-09-20T07:10:33.761Z,1.20
2022-09-20T07:13:03.531Z,1.50
2022-09-20T07:15:33.710Z,1.30
2022-09-20T07:18:02.679Z,1.40
2022-09-20T07:20:31.085Z,1.30
2022-09-20T07:23:00.968Z,1.10
2022-09-20T07:25:29.383Z,1.10
2022-09-20T07:27:57.976Z,0.90
2022-09-20T07:30:26.538Z,0.80
2022-09-20T07:32:54.979Z,1.50
2022-09-20T07:35:23.458Z,0.97
2022-09-20T07:37:57.946Z,0.80
2022-09-20T07:40:27.763Z,0.90
2022-09-20T07:42:58.006Z,0.83
2022-09-20T07:45:26.458Z,1.03
2022-09-20T07:47:54.849Z,0.90
2022-09-20T07:50:23.403Z,4.60
2022-09-20T07:52:51.863Z,1.70
2022-09-20T07:55:20.290Z,1.60
2022-09-20T07:57:51.187Z,1.33
2022-09-20T08:00:19.720Z,1.53
2022-09-20T08:02:48.248Z,1.50
2022-09-20T08:05:16.698Z,0.90
2022-09-20T08:07:45.145Z,1.30
2022-09-20T08:10:13.559Z,0.80
2022-09-20T08:15:31.831Z,0.40
2022-09-20T08:18:00.287Z,0.67
2022-09-20T08:20:28.743Z,0.57
2022-09-20T08:23:19.735Z,1.10
2022-09-20T08:25:48.594Z,0.90
2022-09-20T08:28:16.990Z,0.60
2022-09-20T08:30:46.792Z,0.67
2022-09-20T08:33:15.215Z,0.80
2022-09-20T08:35:43.603Z,0.40
2022-09-20T08:41:03.463Z,0.13
2022-09-20T08:43:36.535Z,0.27
2022-09-20T08:46:07.483Z,0.30
2022-09-20T08:48:36.055Z,0.50
2022-09-20T08:51:05.893Z,0.30
2022-09-20T08:53:35.346Z,0.70
2022-09-20T08:56:04.788Z,0.40
2022-09-20T08:58:33.430Z,0.10
2022-09-20T09:01:02.178Z,0.20
2022-09-20T09:03:33.669Z,0.60
2022-09-20T09:06:03.619Z,1.50
2022-09-20T09:08:38.187Z,2.03
2022-09-20T09:11:09.621Z,1.63
2022-09-20T09:13:43.396Z,0.30
2022-09-20T09:16:15.084Z,0.40
2022-09-20T09:18:46.128Z,0.50
2022-09-20T09:21:23.252Z,1.23
2022-09-20T09:23:54.424Z,6.23
2022-09-20T09:26:24.445Z,4.10
2022-09-20T09:29:10.783Z,2.10
2022-09-20T09:31:39.814Z,0.50
2022-09-20T09:34:24.606Z,1.00
2022-09-20T09:36:54.395Z,0.83
2022-09-20T09:39:27.539Z,1.93
2022-09-20T09:41:56.190Z,0.53
2022-09-20T09:44:27.631Z,0.73
2022-09-20T09:46:57.006Z,0.90
2022-09-20T09:49:27.829Z,0.30
2022-09-20T09:52:11.902Z,0.10
2022-09-20T09:54:41.531Z,0.27
2022-09-20T09:57:23.921Z,0.23
2022-09-20T10:00:18.457Z,0.10
2022-09-20T10:03:03.936Z,0.20
2022-09-20T10:05:39.182Z,0.30
2022-09-20T10:08:18.104Z,0.37
2022-09-20T10:11:00.837Z,0.23
2022-09-20T10:13:40.304Z,0.30
2022-09-20T10:16:16.100Z,0.27
2022-09-20T10:18:49.231Z,0.30
2022-09-20T10:21:31.206Z,0.33
2022-09-20T10:24:07.602Z,0.20
2022-09-20T10:26:54.703Z,0.40
2022-09-20T10:29:32.512Z,0.47
2022-09-20T10:32:07.905Z,0.40
2022-09-20T10:35:01.957Z,0.40
2022-09-20T10:37:46.092Z,0.50
2022-09-20T10:40:26.540Z,0.50
2022-09-20T10:43:17.639Z,0.50
2022-09-20T10:46:20.514Z,0.27
2022-09-20T10:48:44.036Z,0.60
2022-09-20T10:51:18.111Z,0.23
2022-09-20T10:53:52.666Z,0.30
2022-09-20T10:56:28.166Z,0.30
2022-09-20T10:59:20.587Z,0.40
2022-09-20T11:02:03.168Z,0.50
2022-09-20T11:04:50.878Z,0.70
2022-09-20T11:07:22.267Z,0.40
2022-09-20T11:09:53.838Z,0.37
2022-09-20T11:12:27.051Z,0.60
2022-09-20T11:14:58.479Z,0.60
2022-09-20T11:17:31.946Z,0.30
2022-09-20T11:20:07.732Z,0.57
2022-09-20T11:22:43.567Z,0.40
2022-09-20T11:25:21.598Z,0.40
2022-09-20T11:28:00.109Z,0.10
2022-09-20T11:30:32.871Z,0.30
2022-09-20T11:33:06.744Z,0.93
2022-09-20T11:35:37.758Z,0.50
2022-09-20T11:38:12.057Z,0.60
2022-09-20T11:40:49.410Z,0.80
2022-09-20T11:43:19.811Z,0.80
2022-09-20T11:45:51.349Z,1.03
2022-09-20T11:48:25.149Z,1.20
2022-09-20T11:51:35.439Z,0.77
2022-09-20T11:54:29.799Z,1.03
2022-09-20T11:57:00.771Z,1.13
2022-09-20T11:59:31.926Z,0.90
2022-09-20T12:02:02.088Z,0.50
2022-09-20T12:04:34.239Z,0.47
2022-09-20T12:07:10.666Z,0.33
2022-09-20T12:09:42.524Z,0.63
2022-09-20T12:12:20.695Z,0.50
2022-09-20T12:14:55.919Z,0.70
2022-09-20T12:17:57.711Z,0.40
2022-09-20T12:21:01.342Z,0.53
2022-09-20T12:24:04.805Z,0.50
2022-09-20T12:26:45.761Z,0.70
2022-09-20T12:29:54.300Z,0.60
2022-09-20T12:32:55.129Z,0.67
2022-09-20T12:36:26.968Z,0.80
2022-09-20T12:39:06.509Z,0.37
2022-09-20T12:41:51.336Z,1.60
2022-09-20T12:44:32.130Z,0.40
2022-09-20T12:47:02.114Z,0.30
2022-09-20T12:50:03.285Z,0.40
2022-09-20T12:52:57.519Z,0.43
2022-09-20T12:55:52.716Z,0.33
2022-09-20T12:58:41.555Z,0.50
2022-09-20T13:01:33.533Z,0.40
2022-09-20T13:04:55.252Z,0.43
2022-09-20T13:07:45.251Z,0.50
2022-09-20T13:10:30.535Z,0.80
2022-09-20T13:13:20.161Z,0.40
2022-09-20T13:15:51.705Z,0.50
2022-09-20T13:18:20.816Z,0.83
2022-09-20T13:20:51.509Z,1.00
2022-09-20T13:23:26.278Z,1.57
2022-09-20T13:25:57.645Z,0.70
2022-09-20T13:28:40.333Z,0.90
2022-09-20T13:31:29.153Z,1.70
2022-09-20T13:34:14.311Z,1.23
2022-09-20T13:36:46.305Z,2.77
2022-09-20T13:39:29.534Z,2.20
2022-09-20T13:42:03.376Z,2.03
2022-09-20T13:44:34.387Z,0.80
2022-09-20T13:47:03.323Z,0.60
2022-09-20T13:49:33.003Z,1.00
2022-09-20T13:52:16.967Z,1.50
2022-09-20T13:54:49.061Z,0.50
2022-09-20T13:57:22.151Z,0.40
2022-09-20T13:59:51.100Z,0.40
2022-09-20T14:02:23.719Z,0.40
2022-09-20T14:04:58.248Z,0.57
2022-09-20T14:07:28.129Z,0.60
2022-09-20T14:09:58.926Z,0.70
2022-09-20T14:12:28.464Z,0.67
2022-09-20T14:14:57.423Z,0.80
2022-09-20T14:17:28.955Z,0.80
2022-09-20T14:19:58.340Z,0.77
2022-09-20T14:22:28.403Z,0.90
2022-09-20T14:25:03.264Z,0.60
2022-09-20T14:27:32.711Z,1.20
2022-09-20T14:30:02.439Z,0.70
2022-09-20T14:32:43.376Z,0.77
2022-09-20T14:35:18.314Z,1.00
2022-09-20T14:37:49.967Z,0.80
2022-09-20T14:40:29.176Z,0.80
2022-09-20T14:43:02.562Z,0.90
2022-09-20T14:45:33.354Z,1.50
2022-09-20T14:48:10.403Z,0.50
2022-09-20T14:50:44.489Z,1.10
2022-09-20T14:53:26.662Z,0.70
2022-09-20T14:56:12.493Z,0.63
2022-09-20T14:59:07.079Z,0.57
2022-09-20T15:01:36.690Z,0.67
2022-09-20T15:04:10.563Z,0.50
2022-09-20T15:06:40.276Z,0.50
2022-09-20T15:09:11.599Z,0.60
2022-09-20T15:11:43.597Z,0.93
2022-09-20T15:14:14.827Z,3.53
2022-09-20T15:16:43.716Z,3.47
2022-09-20T15:19:12.511Z,1.50
2022-09-20T15:21:44.031Z,1.30
2022-09-20T15:24:12.858Z,0.80
2022-09-20T15:26:42.754Z,0.53
2022-09-20T15:29:16.186Z,0.90
2022-09-20T15:31:45.486Z,0.60
2022-09-20T15:34:14.339Z,0.87
2022-09-20T15:36:50.783Z,0.90
2022-09-20T15:39:19.396Z,1.20
2022-09-20T15:41:51.211Z,1.33
2022-09-20T15:44:20.281Z,1.13
2022-09-20T15:46:53.135Z,1.33
2022-09-20T15:49:22.258Z,1.30
2022-09-20T15:51:56.611Z,1.00
2022-09-20T15:54:26.627Z,1.03
2022-09-20T15:56:56.563Z,8.03
2022-09-20T15:59:25.677Z,5.20
2022-09-20T16:01:54.217Z,1.47
2022-09-20T16:04:24.161Z,1.10
2022-09-20T16:06:55.490Z,2.10
2022-09-20T16:09:23.889Z,3.43
2022-09-20T16:11:58.646Z,2.23
2022-09-20T16:14:28.618Z,3.20
2022-09-20T16:16:57.590Z,3.50
2022-09-20T16:19:30.760Z,1.33
2022-09-20T16:22:00.151Z,0.83
2022-09-20T16:24:30.623Z,0.60
2022-09-20T16:27:00.840Z,1.20
2022-09-20T16:29:31.248Z,1.03
2022-09-20T16:32:03.806Z,1.20
2022-09-20T16:34:35.834Z,1.00
2022-09-20T16:37:06.447Z,2.80
2022-09-20T16:39:34.873Z,2.73
2022-09-20T16:42:07.446Z,13.30
2022-09-20T16:44:38.529Z,8.63
2022-09-20T16:47:08.913Z,5.87
2022-09-20T16:49:38.041Z,3.60
2022-09-20T16:52:07.291Z,2.50
2022-09-20T16:54:38.281Z,3.43
2022-09-20T16:57:07.140Z,2.10
2022-09-20T16:59:37.204Z,2.27
2022-09-20T17:02:05.705Z,1.33
2022-09-20T17:04:34.246Z,1.50
2022-09-20T17:07:02.727Z,1.50
2022-09-20T17:09:31.419Z,2.37
2022-09-20T17:12:01.336Z,2.53
2022-09-20T17:14:30.616Z,2.70
2022-09-20T17:17:00.426Z,2.60
2022-09-20T17:19:29.034Z,2.73
2022-09-20T17:21:57.534Z,2.90
2022-09-20T17:24:26.412Z,4.07
2022-09-20T17:26:55.047Z,3.83
2022-09-20T17:29:24.038Z,4.60
2022-09-20T17:31:56.007Z,3.73
2022-09-20T17:34:32.199Z,4.57
2022-09-20T17:37:02.828Z,4.53
2022-09-20T17:39:31.323Z,4.83
2022-09-20T17:42:02.665Z,5.43
2022-09-20T17:44:35.204Z,7.17
2022-09-20T17:47:07.089Z,8.10
2022-09-20T17:49:40.736Z,9.30
2022-09-20T17:52:09.943Z,12.23
2022-09-20T17:54:39.578Z,7.63
2022-09-20T17:57:08.086Z,11.70
2022-09-20T17:59:38.839Z,9.43
2022-09-20T18:02:07.311Z,7.03
2022-09-20T18:04:37.127Z,3.83
2022-09-20T18:07:05.823Z,3.67
2022-09-20T18:09:34.207Z,4.63
2022-09-20T18:12:06.734Z,4.60
2022-09-20T18:14:35.213Z,5.40
2022-09-20T18:17:03.827Z,6.80
2022-09-20T18:19:34.180Z,27.33
2022-09-20T18:22:04.914Z,38.87
2022-09-20T18:24:33.358Z,34.40
2022-09-20T18:27:01.921Z,26.00
2022-09-20T18:29:36.474Z,16.30
2022-09-20T18:32:08.745Z,19.13
2022-09-20T18:34:37.386Z,11.10
2022-09-20T18:37:13.835Z,9.97
2022-09-20T18:39:43.062Z,5.60
2022-09-20T18:42:11.616Z,4.17
2022-09-20T18:44:40.170Z,3.90
2022-09-20T18:47:08.757Z,4.80
2022-09-20T18:49:37.366Z,5.97
2022-09-20T18:52:09.193Z,5.90
2022-09-20T18:54:40.875Z,7.83
2022-09-20T18:57:11.466Z,5.70
2022-09-20T18:59:40.202Z,6.33
2022-09-20T19:02:26.808Z,6.17
2022-09-20T19:05:17.218Z,6.80
2022-09-20T19:08:03.851Z,6.67
2022-09-20T19:10:40.284Z,6.90
2022-09-20T19:13:20.900Z,6.90
2022-09-20T19:16:11.522Z,7.67
2022-09-20T19:18:59.426Z,7.57
2022-09-20T19:21:35.434Z,6.47
2022-09-20T19:24:15.334Z,6.17
2022-09-20T19:26:44.198Z,5.70
2022-09-20T19:29:19.530Z,4.70
2022-09-20T19:31:49.851Z,6.67
2022-09-20T19:34:21.642Z,7.30
2022-09-20T19:37:02.790Z,6.77
2022-09-20T19:39:42.525Z,5.30
2022-09-20T19:42:16.054Z,6.87
2022-09-20T19:44:49.912Z,7.23
2022-09-20T19:47:26.082Z,7.17
2022-09-20T19:49:56.769Z,6.03
2022-09-20T19:52:26.066Z,4.43
2022-09-20T19:54:56.799Z,3.47
2022-09-20T19:57:32.948Z,4.43
2022-09-20T20:00:03.420Z,4.40
2022-09-20T20:02:35.253Z,3.77
2022-09-20T20:05:04.934Z,3.57
2022-09-20T20:07:37.962Z,3.33
2022-09-20T20:10:16.814Z,3.10
2022-09-20T20:12:51.482Z,3.30
2022-09-20T20:15:31.169Z,3.43
2022-09-20T20:18:05.655Z,3.27
2022-09-20T20:20:39.530Z,2.83
2022-09-20T20:23:40.652Z,2.83
2022-09-20T20:26:12.915Z,2.93
2022-09-20T20:28:41.590Z,3.20
2022-09-20T20:31:12.529Z,3.40
2022-09-20T20:33:41.227Z,5.63
2022-09-20T20:36:11.238Z,8.00
2022-09-20T20:38:40.819Z,7.60
2022-09-20T20:41:12.091Z,5.10
2022-09-20T20:43:41.938Z,5.73
2022-09-20T20:46:14.099Z,18.20
2022-09-20T20:48:43.014Z,13.77
2022-09-20T20:51:13.030Z,4.63
2022-09-20T20:53:44.929Z,2.93
2022-09-20T20:56:16.406Z,2.40
2022-09-20T20:58:46.062Z,2.80
2022-09-20T21:01:16.998Z,2.77
2022-09-20T21:03:48.061Z,1.87
2022-09-20T21:06:17.141Z,1.93
2022-09-20T21:08:49.266Z,3.50
2022-09-20T21:11:23.247Z,2.90
2022-09-20T21:13:52.063Z,2.80
2022-09-20T21:16:21.966Z,2.40
2022-09-20T21:18:51.157Z,2.10
2022-09-20T21:21:21.028Z,2.00
2022-09-20T21:23:50.934Z,2.47
2022-09-20T21:26:21.908Z,2.60
2022-09-20T21:28:52.892Z,2.27
2022-09-20T21:31:22.724Z,1.80
2022-09-20T21:33:51.340Z,4.10
2022-09-20T21:36:21.374Z,4.07
2022-09-20T21:38:49.874Z,2.50
2022-09-20T21:41:22.137Z,1.87
2022-09-20T21:43:54.954Z,2.93
2022-09-20T21:46:28.253Z,3.00
2022-09-20T21:48:57.894Z,2.40
2022-09-20T21:51:29.868Z,1.97
2022-09-20T21:53:59.704Z,2.00
2022-09-20T21:56:31.163Z,2.00
2022-09-20T21:59:02.109Z,1.47
2022-09-20T22:01:33.541Z,1.70
2022-09-20T22:04:05.366Z,1.77
2022-09-20T22:06:35.617Z,1.77
2022-09-20T22:09:05.920Z,1.43
2022-09-20T22:11:38.853Z,1.40
2022-09-20T22:14:07.700Z,1.70
2022-09-20T22:16:37.943Z,1.50
2022-09-20T22:19:08.010Z,1.63
2022-09-20T22:21:37.790Z,1.60
2022-09-20T22:24:07.806Z,1.37
2022-09-20T22:26:39.337Z,1.43
2022-09-20T22:29:08.155Z,1.40
2022-09-20T22:31:38.932Z,1.30
2022-09-20T22:34:08.389Z,1.33
2022-09-20T22:36:38.665Z,1.50
2022-09-20T22:39:08.785Z,2.70
2022-09-20T22:41:41.038Z,2.37
2022-09-20T22:44:09.694Z,3.10
2022-09-20T22:46:38.490Z,4.53
2022-09-20T22:49:07.006Z,2.60
2022-09-20T22:51:35.889Z,2.43
2022-09-20T22:54:07.606Z,3.60
2022-09-20T22:56:36.358Z,3.73
2022-09-20T22:59:07.810Z,5.03
2022-09-20T23:01:37.711Z,5.93
2022-09-20T23:04:08.230Z,9.30
2022-09-20T23:06:38.870Z,8.73
2022-09-20T23:09:09.743Z,7.43
2022-09-20T23:11:39.129Z,7.27
2022-09-20T23:14:08.894Z,7.50
2022-09-20T23:16:38.563Z,6.37
2022-09-20T23:19:08.149Z,6.70
2022-09-20T23:21:38.525Z,6.73
2022-09-20T23:24:08.778Z,5.63
2022-09-20T23:26:38.862Z,4.03
2022-09-20T23:29:10.927Z,3.43
2022-09-20T23:31:41.049Z,3.60
2022-09-20T23:34:10.955Z,3.77
2022-09-20T23:36:41.563Z,4.40
2022-09-20T23:39:11.683Z,3.90
2022-09-20T23:41:41.255Z,3.70
2022-09-20T23:44:11.541Z,3.63
2022-09-20T23:46:40.547Z,3.53
2022-09-20T23:49:09.524Z,3.57
2022-09-20T23:51:38.288Z,3.30
2022-09-20T23:54:07.105Z,3.13
2022-09-20T23:56:35.882Z,3.00
2022-09-20T23:59:04.319Z,2.80
